Time;durP1;ratioP1;P1;durP2;ratioP2;P2;SDS_P1;SDS_P2;PMS_P1;PMS_P2;Temp;Humidity;BMP_temperature;BMP_pressure;BME280_temperature;BME280_humidity;BME280_pressure;Samples;Min_cycle;Max_cycle;Signal;HPM_P1;HPM_P2
2023/07/27 00:01:55;;;;;;;12.23;5.47;;;14.60;1.00;;;;;;7389814;19;20019;-68
2023/07/27 00:04:30;;;;;;;8.07;5.55;;;14.60;1.00;;;;;;7386297;19;20042;-68
2023/07/27 00:07:00;;;;;;;10.10;5.70;;;14.70;1.00;;;;;;7391003;19;20010;-67
2023/07/27 00:09:30;;;;;;;8.60;5.80;;;14.70;1.00;;;;;;7393485;19;20022;-68
2023/07/27 00:12:00;;;;;;;8.75;6.18;;;14.70;1.00;;;;;;7393183;19;20081;-68
2023/07/27 00:14:30;;;;;;;12.90;6.57;;;14.70;1.00;;;;;;7390177;19;20042;-68
2023/07/27 00:17:00;;;;;;;12.00;6.57;;;14.60;1.00;;;;;;7389213;19;20450;-69
2023/07/27 00:19:32;;;;;;;10.75;6.57;;;14.60;1.00;;;;;;7389090;19;20014;-68
2023/07/27 00:22:02;;;;;;;10.15;6.78;;;14.60;1.00;;;;;;7391214;19;20014;-69
2023/07/27 00:24:32;;;;;;;8.18;6.10;;;14.60;1.00;;;;;;7386322;19;20014;-68
2023/07/27 00:27:02;;;;;;;10.60;6.50;;;14.60;1.00;;;;;;7389714;19;20010;-69
2023/07/27 00:29:32;;;;;;;8.32;5.93;;;14.60;1.00;;;;;;7388512;19;20558;-69
2023/07/27 00:32:02;;;;;;;9.20;5.85;;;14.60;1.00;;;;;;7390889;19;20035;-68
2023/07/27 00:34:35;;;;;;;8.77;5.20;;;14.60;1.00;;;;;;7390729;19;20761;-68
2023/07/27 00:37:05;;;;;;;8.95;5.20;;;14.60;1.00;;;;;;7390906;19;20022;-68
2023/07/27 00:39:35;;;;;;;6.22;4.70;;;14.60;1.00;;;;;;7390295;19;20031;-68
2023/07/27 00:42:06;;;;;;;7.53;4.90;;;14.60;1.00;;;;;;7390177;19;20043;-68
2023/07/27 00:44:36;;;;;;;7.43;4.50;;;14.50;1.00;;;;;;7390458;19;20002;-69
2023/07/27 00:47:06;;;;;;;8.18;4.40;;;14.50;1.00;;;;;;7392775;19;20018;-68
2023/07/27 00:49:39;;;;;;;6.28;4.70;;;14.50;1.00;;;;;;7390454;19;20026;-68
2023/07/27 00:52:10;;;;;;;7.78;4.60;;;14.50;1.00;;;;;;7390288;19;20011;-68
2023/07/27 00:54:40;;;;;;;6.18;4.57;;;14.40;1.00;;;;;;7389799;19;20083;-68
2023/07/27 00:57:10;;;;;;;8.18;4.90;;;14.50;1.00;;;;;;7387081;19;20018;-68
2023/07/27 00:59:42;;;;;;;9.18;5.20;;;14.40;1.00;;;;;;7388655;19;20122;-68
2023/07/27 01:02:12;;;;;;;7.93;4.70;;;14.30;1.00;;;;;;7393248;19;20090;-68
2023/07/27 01:04:45;;;;;;;10.25;5.43;;;14.30;1.00;;;;;;7387904;19;20485;-68
2023/07/27 01:07:15;;;;;;;10.23;5.00;;;14.30;1.00;;;;;;7390833;19;20010;-68
2023/07/27 01:09:45;;;;;;;9.35;5.75;;;14.20;1.00;;;;;;7393301;19;20021;-68
2023/07/27 01:12:22;;;;;;;8.30;4.63;;;14.20;1.00;;;;;;7388565;19;20022;-68
2023/07/27 01:15:00;;;;;;;8.00;4.93;;;14.20;1.00;;;;;;7387775;19;20015;-68
2023/07/27 01:17:35;;;;;;;7.68;4.95;;;14.20;1.00;;;;;;7388058;19;20462;-68
2023/07/27 01:20:19;;;;;;;8.45;5.18;;;14.20;1.00;;;;;;7388369;19;20025;-68
2023/07/27 01:23:12;;;;;;;8.02;5.10;;;14.20;1.00;;;;;;7387955;19;20066;-68
2023/07/27 01:25:58;;;;;;;6.90;4.95;;;14.10;1.00;;;;;;7386117;19;20014;-68
2023/07/27 01:28:45;;;;;;;6.13;4.53;;;14.10;1.00;;;;;;7387729;19;20011;-68
2023/07/27 01:31:23;;;;;;;7.65;4.85;;;14.10;1.00;;;;;;7385969;19;20085;-68
2023/07/27 01:34:02;;;;;;;7.68;4.80;;;14.10;1.00;;;;;;7385383;19;20010;-68
2023/07/27 01:36:39;;;;;;;6.63;4.80;;;14.10;1.00;;;;;;7385091;19;20366;-68
2023/07/27 01:39:12;;;;;;;6.40;4.22;;;14.00;1.00;;;;;;7387328;19;20348;-69
2023/07/27 01:41:45;;;;;;;8.57;4.47;;;14.00;1.00;;;;;;7384832;19;20085;-69
2023/07/27 01:44:16;;;;;;;5.35;4.47;;;13.90;1.00;;;;;;7385057;19;20287;-69
2023/07/27 01:46:49;;;;;;;7.97;4.72;;;14.00;1.00;;;;;;7386651;19;20036;-68
2023/07/27 01:49:20;;;;;;;7.50;4.43;;;13.90;1.00;;;;;;7386986;19;20094;-68
2023/07/27 01:51:51;;;;;;;6.00;4.20;;;13.90;1.00;;;;;;7386014;19;20478;-68
2023/07/27 01:54:22;;;;;;;5.65;4.20;;;13.90;1.00;;;;;;7385303;19;20022;-68
2023/07/27 01:56:52;;;;;;;4.93;3.75;;;13.90;1.00;;;;;;7385539;19;20078;-68
2023/07/27 01:59:23;;;;;;;5.85;4.28;;;13.90;1.00;;;;;;7386282;19;20018;-69
2023/07/27 02:01:57;;;;;;;6.05;3.88;;;13.90;1.00;;;;;;7387690;19;20082;-68
2023/07/27 02:04:27;;;;;;;6.27;4.40;;;13.90;1.00;;;;;;7386000;19;20026;-68
2023/07/27 02:06:57;;;;;;;7.60;4.60;;;13.90;1.00;;;;;;7388226;19;20033;-68
2023/07/27 02:09:28;;;;;;;8.57;4.53;;;14.00;1.00;;;;;;7393551;19;20097;-68
2023/07/27 02:12:03;;;;;;;6.75;3.97;;;13.90;1.00;;;;;;7395924;19;20018;-68
2023/07/27 02:14:42;;;;;;;5.80;4.07;;;13.90;1.00;;;;;;7394842;19;20023;-68
2023/07/27 02:17:22;;;;;;;6.90;4.30;;;13.90;1.00;;;;;;7396828;19;20014;-68
2023/07/27 02:19:58;;;;;;;5.20;4.20;;;13.90;1.00;;;;;;7394701;19;20046;-68
2023/07/27 02:22:30;;;;;;;11.82;4.63;;;13.90;1.00;;;;;;7395595;19;20046;-68
2023/07/27 02:25:00;;;;;;;5.70;4.28;;;13.80;1.00;;;;;;7391729;19;20078;-68
2023/07/27 02:27:31;;;;;;;7.90;4.35;;;13.80;1.00;;;;;;7396496;19;20589;-68
2023/07/27 02:30:03;;;;;;;6.45;3.85;;;13.80;1.00;;;;;;7394024;19;20014;-68
2023/07/27 02:32:37;;;;;;;6.03;3.90;;;13.80;1.00;;;;;;7395324;19;20030;-68
2023/07/27 02:35:08;;;;;;;5.75;3.97;;;13.80;1.00;;;;;;7392222;19;20098;-68
2023/07/27 02:37:38;;;;;;;6.65;3.70;;;13.70;1.00;;;;;;7394506;19;20466;-68
2023/07/27 02:40:09;;;;;;;5.25;3.75;;;13.80;1.00;;;;;;7393471;19;20011;-67
2023/07/27 02:42:39;;;;;;;5.90;4.05;;;13.80;1.00;;;;;;7394312;19;20031;-69
2023/07/27 02:45:10;;;;;;;7.32;4.00;;;13.80;1.00;;;;;;7393332;19;20032;-69
2023/07/27 02:47:42;;;;;;;6.95;4.35;;;13.80;1.00;;;;;;7395877;19;20084;-68
2023/07/27 02:50:12;;;;;;;5.95;3.83;;;13.80;1.00;;;;;;7392807;19;20038;-68
2023/07/27 02:52:46;;;;;;;4.70;3.83;;;13.90;1.00;;;;;;7394773;19;20011;-69
2023/07/27 02:55:16;;;;;;;7.60;4.05;;;13.90;1.00;;;;;;7393828;19;20014;-69
2023/07/27 02:57:46;;;;;;;5.75;4.18;;;13.90;1.00;;;;;;7395620;19;20031;-69
2023/07/27 03:00:16;;;;;;;6.57;4.45;;;13.90;1.00;;;;;;7393145;19;20041;-69
2023/07/27 03:02:48;;;;;;;5.50;3.97;;;14.00;1.00;;;;;;7393622;19;20022;-69
2023/07/27 03:05:18;;;;;;;5.30;3.83;;;14.00;1.00;;;;;;7393109;19;20018;-69
2023/07/27 03:07:48;;;;;;;6.70;4.03;;;14.00;1.00;;;;;;7395708;19;20034;-69
2023/07/27 03:10:18;;;;;;;5.53;3.55;;;14.10;1.00;;;;;;7392326;19;20021;-69
2023/07/27 03:12:49;;;;;;;5.63;3.10;;;14.10;1.00;;;;;;7393794;19;20022;-67
2023/07/27 03:15:19;;;;;;;5.43;3.55;;;14.10;1.00;;;;;;7393586;19;20078;-67
2023/07/27 03:17:51;;;;;;;6.60;3.83;;;14.10;1.00;;;;;;7394536;19;20007;-68
2023/07/27 03:20:21;;;;;;;6.13;3.58;;;14.10;1.00;;;;;;7389703;19;20470;-68
2023/07/27 03:22:51;;;;;;;4.50;3.10;;;14.10;1.00;;;;;;7393893;19;20088;-68
2023/07/27 03:25:21;;;;;;;5.47;3.42;;;14.20;1.00;;;;;;7392196;19;20078;-68
2023/07/27 03:27:51;;;;;;;3.92;3.42;;;14.20;1.00;;;;;;7394319;19;20019;-68
2023/07/27 03:30:21;;;;;;;3.60;3.03;;;14.20;1.00;;;;;;7391833;19;20018;-68
2023/07/27 03:32:54;;;;;;;5.57;3.83;;;14.30;1.00;;;;;;7392529;19;20026;-68
2023/07/27 03:35:24;;;;;;;4.93;3.45;;;14.30;1.00;;;;;;7392365;19;20014;-68
2023/07/27 03:37:54;;;;;;;4.32;3.40;;;14.30;1.00;;;;;;7394132;19;20086;-68
2023/07/27 03:40:24;;;;;;;5.72;3.45;;;14.30;1.00;;;;;;7391948;19;20007;-68
2023/07/27 03:42:54;;;;;;;4.60;3.10;;;14.30;1.00;;;;;;7392569;19;20092;-68
2023/07/27 03:45:24;;;;;;;5.78;3.00;;;14.30;1.00;;;;;;7392288;19;20019;-69
2023/07/27 03:47:57;;;;;;;4.35;3.17;;;14.30;1.00;;;;;;7393550;19;20495;-69
2023/07/27 03:50:27;;;;;;;4.70;3.03;;;14.30;1.00;;;;;;7390974;19;20379;-68
2023/07/27 03:52:59;;;;;;;6.95;3.35;;;14.30;1.00;;;;;;7392037;19;20499;-69
2023/07/27 03:55:29;;;;;;;5.47;3.47;;;14.30;1.00;;;;;;7391760;19;20046;-69
2023/07/27 03:57:59;;;;;;;4.47;3.08;;;14.20;1.00;;;;;;7391803;19;20022;-68
2023/07/27 04:00:29;;;;;;;5.13;3.22;;;14.20;1.00;;;;;;7390757;19;20019;-67
2023/07/27 04:03:02;;;;;;;4.90;3.30;;;14.20;1.00;;;;;;7391852;19;20082;-68
2023/07/27 04:05:32;;;;;;;5.65;3.65;;;14.20;1.00;;;;;;7391274;19;20070;-69
2023/07/27 04:08:02;;;;;;;5.45;3.00;;;14.20;1.00;;;;;;7393141;19;20035;-69
2023/07/27 04:10:32;;;;;;;3.83;3.10;;;14.20;1.00;;;;;;7390405;19;20022;-69
2023/07/27 04:13:02;;;;;;;5.13;3.08;;;14.20;1.00;;;;;;7389631;19;20011;-69
2023/07/27 04:15:33;;;;;;;4.72;3.00;;;14.30;1.00;;;;;;7390903;19;20022;-69
2023/07/27 04:18:06;;;;;;;6.97;3.45;;;14.30;1.00;;;;;;7392876;19;20014;-68
2023/07/27 04:20:36;;;;;;;4.38;3.10;;;14.30;1.00;;;;;;7389307;19;20022;-68
2023/07/27 04:23:06;;;;;;;5.40;2.78;;;14.30;1.00;;;;;;7391083;19;20688;-68
2023/07/27 04:25:36;;;;;;;4.10;3.00;;;14.30;1.00;;;;;;7390198;19;20014;-68
2023/07/27 04:28:06;;;;;;;4.32;2.95;;;14.30;1.00;;;;;;7391055;19;20010;-68
2023/07/27 04:30:36;;;;;;;5.28;2.92;;;14.40;1.00;;;;;;7389354;19;20022;-68
2023/07/27 04:33:08;;;;;;;4.93;2.85;;;14.30;1.00;;;;;;7390331;19;20470;-68
2023/07/27 04:35:38;;;;;;;4.43;2.92;;;14.40;1.00;;;;;;7388917;19;20725;-68
2023/07/27 04:38:08;;;;;;;4.68;2.67;;;14.50;1.00;;;;;;7392758;19;20010;-68
2023/07/27 04:40:38;;;;;;;4.13;2.97;;;14.50;1.00;;;;;;7387643;19;20014;-68
2023/07/27 04:43:08;;;;;;;4.75;2.63;;;14.50;1.00;;;;;;7390353;19;20721;-68
2023/07/27 04:45:38;;;;;;;7.70;2.50;;;14.50;1.00;;;;;;7391015;19;20018;-68
2023/07/27 04:48:11;;;;;;;4.72;2.90;;;14.60;1.00;;;;;;7392220;19;20339;-68
2023/07/27 04:50:41;;;;;;;4.95;2.90;;;14.60;1.00;;;;;;7388262;19;20028;-68
2023/07/27 04:53:11;;;;;;;5.80;2.83;;;14.70;1.00;;;;;;7389627;19;20039;-68
2023/07/27 04:55:41;;;;;;;3.55;2.75;;;14.70;1.00;;;;;;7389824;19;20102;-68
2023/07/27 04:58:11;;;;;;;3.75;2.70;;;14.70;1.00;;;;;;7389806;19;20070;-68
2023/07/27 05:00:41;;;;;;;7.93;2.90;;;14.70;1.00;;;;;;7388281;19;20027;-68
2023/07/27 05:03:13;;;;;;;3.45;2.70;;;14.80;1.00;;;;;;7389463;19;20006;-67
2023/07/27 05:05:46;;;;;;;4.80;3.08;;;14.90;1.00;;;;;;7389829;19;20027;-69
2023/07/27 05:08:16;;;;;;;4.18;2.60;;;15.00;1.00;;;;;;7390242;19;20014;-67
2023/07/27 05:10:46;;;;;;;4.80;3.05;;;15.10;1.00;;;;;;7387716;19;20039;-68
2023/07/27 05:13:16;;;;;;;3.20;2.58;;;15.10;1.00;;;;;;7389404;19;20018;-67
2023/07/27 05:15:47;;;;;;;6.00;2.83;;;15.10;1.00;;;;;;7389705;19;20018;-69
2023/07/27 05:18:19;;;;;;;5.15;2.97;;;15.10;1.00;;;;;;7391305;19;20010;-70
2023/07/27 05:20:49;;;;;;;4.35;3.00;;;15.30;1.00;;;;;;7387888;19;20006;-68
2023/07/27 05:23:19;;;;;;;6.68;3.38;;;15.40;1.00;;;;;;7389544;19;20006;-68
2023/07/27 05:25:49;;;;;;;7.43;2.70;;;15.30;1.00;;;;;;7388598;19;20466;-69
2023/07/27 05:28:19;;;;;;;5.10;2.92;;;15.40;1.00;;;;;;7388851;19;20090;-68
2023/07/27 05:30:49;;;;;;;7.35;3.42;;;15.40;1.00;;;;;;7387556;19;20019;-69
2023/07/27 05:33:23;;;;;;;4.75;3.13;;;15.40;1.00;;;;;;7388148;19;20049;-68
2023/07/27 05:35:53;;;;;;;5.20;3.30;;;15.40;1.00;;;;;;7388221;19;20018;-67
2023/07/27 05:38:23;;;;;;;8.73;3.22;;;15.50;1.00;;;;;;7390290;19;20020;-68
2023/07/27 05:40:53;;;;;;;6.78;3.42;;;15.60;1.00;;;;;;7386736;19;20478;-69
2023/07/27 05:43:23;;;;;;;5.03;3.38;;;15.70;1.00;;;;;;7386990;19;20018;-68
2023/07/27 05:45:53;;;;;;;7.78;3.35;;;15.70;1.00;;;;;;7389382;19;20082;-69
2023/07/27 05:48:26;;;;;;;5.60;3.25;;;15.80;1.00;;;;;;7388110;19;20034;-68
2023/07/27 05:50:56;;;;;;;6.78;3.65;;;15.90;1.00;;;;;;7386955;19;20011;-68
2023/07/27 05:53:26;;;;;;;5.43;3.13;;;16.00;1.00;;;;;;7386569;19;20028;-68
2023/07/27 05:55:56;;;;;;;4.97;3.38;;;16.00;1.00;;;;;;7387832;19;20015;-69
2023/07/27 05:58:26;;;;;;;5.72;3.03;;;16.20;1.00;;;;;;7388218;19;20037;-69
2023/07/27 06:01:03;;;;;;;6.28;3.50;;;16.20;1.00;;;;;;7385245;19;20034;-68
2023/07/27 06:03:38;;;;;;;4.85;3.08;;;16.30;1.00;;;;;;7386383;19;20015;-74
2023/07/27 06:06:09;;;;;;;6.95;3.22;;;16.40;1.00;;;;;;7386776;19;20022;-69
2023/07/27 06:08:39;;;;;;;3.78;2.55;;;16.20;1.00;;;;;;7387411;19;20353;-68
2023/07/27 06:11:09;;;;;;;5.90;2.88;;;16.30;1.00;;;;;;7385492;19;20035;-68
2023/07/27 06:13:39;;;;;;;3.13;2.40;;;16.40;1.00;;;;;;7386474;19;20023;-68
2023/07/27 06:16:09;;;;;;;6.10;3.00;;;16.40;1.00;;;;;;7387240;19;20014;-68
2023/07/27 06:18:42;;;;;;;4.63;3.03;;;16.60;1.00;;;;;;7389088;19;20018;-68
2023/07/27 06:21:12;;;;;;;3.22;2.60;;;16.80;1.00;;;;;;7386048;19;20019;-68
2023/07/27 06:23:42;;;;;;;5.15;2.38;;;16.80;1.00;;;;;;7385553;19;20042;-68
2023/07/27 06:26:12;;;;;;;5.53;2.60;;;16.90;1.00;;;;;;7387189;19;20034;-68
2023/07/27 06:28:42;;;;;;;4.25;2.60;;;16.90;1.00;;;;;;7385648;19;20518;-68
2023/07/27 06:31:12;;;;;;;3.25;2.33;;;17.30;1.00;;;;;;7385406;19;20418;-68
2023/07/27 06:33:44;;;;;;;4.97;2.45;;;17.40;1.00;;;;;;7384538;19;20014;-68
2023/07/27 06:36:17;;;;;;;5.18;3.03;;;18.30;1.00;;;;;;7386641;19;20038;-68
2023/07/27 06:38:47;;;;;;;3.20;2.38;;;18.80;1.00;;;;;;7388878;19;20037;-68
2023/07/27 06:41:19;;;;;;;3.53;2.30;;;19.00;1.00;;;;;;7383717;19;20023;-68
2023/07/27 06:43:49;;;;;;;2.95;2.60;;;18.90;1.00;;;;;;7386213;19;20022;-68
2023/07/27 06:46:19;;;;;;;5.65;2.75;;;18.70;1.00;;;;;;7389113;19;20018;-69
2023/07/27 06:48:52;;;;;;;7.05;2.40;;;18.60;1.00;;;;;;7386665;19;20022;-68
2023/07/27 06:51:23;;;;;;;11.30;3.15;;;18.70;1.00;;;;;;7384903;19;20053;-68
2023/07/27 06:53:53;;;;;;;6.38;4.97;;;18.40;1.00;;;;;;7385264;19;20015;-68
2023/07/27 06:56:24;;;;;;;4.22;2.58;;;18.60;1.00;;;;;;7390377;19;20038;-68
2023/07/27 06:58:54;;;;;;;4.85;2.47;;;18.70;1.00;;;;;;7394860;19;20269;-68
2023/07/27 07:01:24;;;;;;;4.03;2.53;;;18.70;1.00;;;;;;7390845;19;20032;-68
2023/07/27 07:03:57;;;;;;;4.38;2.40;;;18.70;1.00;;;;;;7392568;19;20011;-68
2023/07/27 07:06:27;;;;;;;5.15;2.33;;;18.90;1.00;;;;;;7393178;19;20022;-69
2023/07/27 07:08:57;;;;;;;4.25;2.35;;;19.00;1.00;;;;;;7392741;19;20522;-69
2023/07/27 07:11:27;;;;;;;2.80;1.63;;;19.20;1.00;;;;;;7390872;19;20014;-68
2023/07/27 07:13:57;;;;;;;5.82;2.22;;;19.20;1.00;;;;;;7392024;19;20042;-69
2023/07/27 07:16:27;;;;;;;2.72;2.00;;;19.20;1.00;;;;;;7392849;19;20038;-68
2023/07/27 07:19:00;;;;;;;3.63;2.25;;;19.20;1.00;;;;;;7394402;19;20470;-67
2023/07/27 07:21:30;;;;;;;3.42;2.03;;;19.10;1.00;;;;;;7390342;19;20019;-67
2023/07/27 07:24:00;;;;;;;2.75;1.75;;;19.10;1.00;;;;;;7391760;19;20020;-67
2023/07/27 07:26:29;;;;;;;3.80;2.20;;;19.10;1.00;;;;;;7392167;19;20011;-67
2023/07/27 07:29:00;;;;;;;3.03;2.00;;;19.00;1.00;;;;;;7392013;19;20097;-67
2023/07/27 07:31:30;;;;;;;3.17;1.92;;;19.00;1.00;;;;;;7389999;19;20508;-68
2023/07/27 07:34:02;;;;;;;3.22;1.67;;;19.00;1.00;;;;;;7392153;19;20028;-67
2023/07/27 07:36:32;;;;;;;9.60;1.88;;;19.00;1.00;;;;;;7389755;19;20018;-67
2023/07/27 07:39:03;;;;;;;4.97;2.10;;;19.10;1.00;;;;;;7393938;19;20342;-68
2023/07/27 07:41:34;;;;;;;4.35;1.83;;;19.20;1.00;;;;;;7390292;19;20007;-68
2023/07/27 07:44:04;;;;;;;4.88;2.10;;;19.20;1.00;;;;;;7391373;19;20022;-68
2023/07/27 07:46:34;;;;;;;3.22;1.70;;;19.10;1.00;;;;;;7394256;19;20010;-68
2023/07/27 07:49:07;;;;;;;4.15;1.80;;;18.80;1.00;;;;;;7391477;19;20021;-68
2023/07/27 07:51:37;;;;;;;6.47;2.58;;;18.80;1.00;;;;;;7389377;19;20015;-68
2023/07/27 07:54:09;;;;;;;4.20;1.92;;;18.80;1.00;;;;;;7391303;19;20502;-68
2023/07/27 07:56:39;;;;;;;4.55;2.00;;;18.80;1.00;;;;;;7391894;19;20370;-67
2023/07/27 07:59:09;;;;;;;3.75;2.03;;;18.70;1.00;;;;;;7393566;19;20508;-68
2023/07/27 08:01:39;;;;;;;3.67;2.22;;;18.70;1.00;;;;;;7389117;19;20513;-69
2023/07/27 08:04:12;;;;;;;3.35;2.42;;;18.40;1.00;;;;;;7391444;19;20010;-67
2023/07/27 08:06:42;;;;;;;2.60;2.10;;;18.30;1.00;;;;;;7389966;19;20019;-68
2023/07/27 08:09:12;;;;;;;4.03;2.22;;;18.10;1.00;;;;;;7392371;19;20048;-68
2023/07/27 08:11:42;;;;;;;2.30;1.88;;;18.10;1.00;;;;;;7387153;19;20010;-70
2023/07/27 08:14:12;;;;;;;5.82;2.22;;;18.10;1.00;;;;;;7390685;19;20018;-69
2023/07/27 08:16:42;;;;;;;4.10;2.58;;;17.90;1.00;;;;;;7388618;19;20363;-68
2023/07/27 08:19:15;;;;;;;5.10;2.45;;;17.90;1.00;;;;;;7391740;19;20490;-69
2023/07/27 08:21:45;;;;;;;4.05;2.42;;;17.70;1.00;;;;;;7388960;19;20375;-68
2023/07/27 08:24:15;;;;;;;3.90;2.10;;;17.60;1.00;;;;;;7389469;19;20026;-69
2023/07/27 08:26:45;;;;;;;5.68;2.22;;;17.60;1.00;;;;;;7390037;19;20007;-68
2023/07/27 08:29:15;;;;;;;4.10;2.33;;;17.70;1.00;;;;;;7391638;19;20514;-69
2023/07/27 08:31:45;;;;;;;3.17;2.22;;;17.70;1.00;;;;;;7388342;19;20031;-68
2023/07/27 08:34:17;;;;;;;4.65;2.20;;;17.70;1.00;;;;;;7389894;19;20081;-68
2023/07/27 08:36:50;;;;;;;2.90;2.20;;;17.80;1.00;;;;;;7388224;19;20019;-69
2023/07/27 08:39:20;;;;;;;3.30;1.98;;;17.70;1.00;;;;;;7392199;19;20336;-68
2023/07/27 08:41:50;;;;;;;2.47;2.10;;;17.70;1.00;;;;;;7393131;19;20010;-69
2023/07/27 08:44:20;;;;;;;5.55;2.30;;;17.90;1.00;;;;;;7392463;19;20010;-69
2023/07/27 08:46:51;;;;;;;3.10;2.20;;;17.90;1.00;;;;;;7393498;19;20018;-68
2023/07/27 08:49:24;;;;;;;17.08;12.32;;;17.90;1.00;;;;;;7390176;19;20021;-68
2023/07/27 08:51:54;;;;;;;5.50;2.50;;;17.90;1.00;;;;;;7393988;19;20081;-68
2023/07/27 08:54:24;;;;;;;5.63;2.00;;;18.00;1.00;;;;;;7393307;19;20031;-68
2023/07/27 08:56:54;;;;;;;5.95;2.63;;;18.10;1.00;;;;;;7391363;19;20557;-68
2023/07/27 08:59:25;;;;;;;4.28;2.38;;;18.10;1.00;;;;;;7392046;19;20011;-68
2023/07/27 09:01:55;;;;;;;5.68;2.53;;;18.00;1.00;;;;;;7392368;19;20033;-67
2023/07/27 09:04:27;;;;;;;4.75;2.58;;;18.00;1.00;;;;;;7393210;19;20010;-68
2023/07/27 09:06:57;;;;;;;3.17;2.15;;;18.10;1.00;;;;;;7393152;19;20308;-68
2023/07/27 09:09:28;;;;;;;9.93;2.88;;;18.20;1.00;;;;;;7388977;19;20014;-69
2023/07/27 09:11:58;;;;;;;2.83;2.22;;;18.00;1.00;;;;;;7392474;19;20014;-69
2023/07/27 09:14:28;;;;;;;3.55;2.40;;;18.00;1.00;;;;;;7391842;19;20011;-69
2023/07/27 09:16:59;;;;;;;3.90;2.47;;;17.90;1.00;;;;;;7393082;19;20014;-68
2023/07/27 09:19:36;;;;;;;3.13;2.35;;;17.80;1.00;;;;;;7389499;19;20555;-68
2023/07/27 09:22:07;;;;;;;5.68;2.42;;;17.80;1.00;;;;;;7392851;19;20018;-69
2023/07/27 09:24:38;;;;;;;5.97;4.15;;;17.80;1.00;;;;;;7392557;19;20015;-69
2023/07/27 09:27:12;;;;;;;3.65;2.53;;;17.80;1.00;;;;;;7390369;19;20010;-69
2023/07/27 09:29:43;;;;;;;3.55;2.53;;;17.60;1.00;;;;;;7390726;19;20108;-69
2023/07/27 09:32:13;;;;;;;3.38;2.30;;;17.60;1.00;;;;;;7390086;19;20350;-69
2023/07/27 09:34:46;;;;;;;5.10;2.83;;;17.60;1.00;;;;;;7391780;19;20371;-70
2023/07/27 09:37:16;;;;;;;3.67;2.33;;;17.60;1.00;;;;;;7392006;19;20037;-68
2023/07/27 09:39:46;;;;;;;5.22;2.53;;;17.60;1.00;;;;;;7390956;19;20010;-69
2023/07/27 09:42:16;;;;;;;3.72;2.65;;;17.60;1.00;;;;;;7392180;19;20119;-68
2023/07/27 09:44:52;;;;;;;4.00;2.60;;;17.70;1.00;;;;;;7389941;19;20108;-70
2023/07/27 09:47:23;;;;;;;5.70;2.75;;;17.70;1.00;;;;;;7392185;19;20462;-68
2023/07/27 09:49:59;;;;;;;5.40;3.05;;;17.80;1.00;;;;;;7387381;19;20018;-69
2023/07/27 09:52:30;;;;;;;5.15;2.72;;;17.70;1.00;;;;;;7391752;19;20089;-69
2023/07/27 09:55:01;;;;;;;5.95;2.85;;;17.70;1.00;;;;;;7391206;19;20533;-69
2023/07/27 09:57:31;;;;;;;4.95;2.83;;;17.80;1.00;;;;;;7391149;19;20585;-69
2023/07/27 10:00:09;;;;;;;5.28;2.80;;;17.90;1.00;;;;;;7388876;19;20032;-69
2023/07/27 10:02:39;;;;;;;5.68;2.65;;;18.00;1.00;;;;;;7390630;19;20024;-69
2023/07/27 10:05:12;;;;;;;3.05;2.13;;;18.10;1.00;;;;;;7389805;19;20018;-69
2023/07/27 10:07:44;;;;;;;3.45;2.22;;;18.10;1.00;;;;;;7390804;19;20475;-70
2023/07/27 10:10:38;;;;;;;5.22;2.40;;;18.10;1.00;;;;;;7389249;19;20011;-69
2023/07/27 10:13:13;;;;;;;10.95;7.20;;;18.10;1.00;;;;;;7391034;19;20463;-69
2023/07/27 10:15:44;;;;;;;5.15;2.67;;;18.20;1.00;;;;;;7390635;19;20011;-70
2023/07/27 10:18:16;;;;;;;4.38;2.58;;;18.20;1.00;;;;;;7388799;19;20021;-69
2023/07/27 10:20:49;;;;;;;4.65;3.20;;;18.40;1.00;;;;;;7387629;19;21351;-69
2023/07/27 10:23:20;;;;;;;3.55;2.17;;;18.40;1.00;;;;;;7387884;19;20386;-70
2023/07/27 10:26:05;;;;;;;7.38;2.58;;;18.40;1.00;;;;;;7390383;19;20006;-70
2023/07/27 10:28:40;;;;;;;6.55;2.35;;;18.50;1.00;;;;;;7390739;19;20011;-69
2023/07/27 10:31:25;;;;;;;3.22;2.20;;;18.50;1.00;;;;;;7393474;19;20018;-69
2023/07/27 10:34:05;;;;;;;4.65;2.45;;;18.60;1.00;;;;;;7397669;19;20348;-69
2023/07/27 10:37:01;;;;;;;4.30;2.08;;;18.50;1.00;;;;;;7397575;19;20555;-69
2023/07/27 10:39:32;;;;;;;3.40;2.13;;;18.80;1.00;;;;;;7394693;19;20356;-69
2023/07/27 10:42:05;;;;;;;3.75;2.17;;;18.90;1.00;;;;;;7395101;19;20038;-69
2023/07/27 10:44:46;;;;;;;2.80;2.00;;;19.00;1.00;;;;;;7397553;19;20022;-69
2023/07/27 10:47:18;;;;;;;3.20;2.40;;;19.20;1.00;;;;;;7397276;19;20006;-69
2023/07/27 10:49:50;;;;;;;2.97;2.10;;;19.40;1.00;;;;;;7396428;19;20419;-70
2023/07/27 10:52:24;;;;;;;2.58;2.10;;;19.60;1.00;;;;;;7396660;19;20402;-70
2023/07/27 10:54:56;;;;;;;5.28;2.17;;;19.50;1.00;;;;;;7397339;19;20029;-68
2023/07/27 10:57:29;;;;;;;3.67;2.70;;;19.70;1.00;;;;;;7396925;19;20316;-70
2023/07/27 10:59:59;;;;;;;15.00;3.00;;;19.90;1.00;;;;;;7395994;19;20042;-69
2023/07/27 11:02:32;;;;;;;2.38;2.10;;;19.90;1.00;;;;;;7393249;19;20018;-69
2023/07/27 11:05:05;;;;;;;2.70;1.95;;;19.80;1.00;;;;;;7392176;19;20010;-69
2023/07/27 11:07:40;;;;;;;7.78;5.43;;;20.10;1.00;;;;;;7393148;19;20018;-68
2023/07/27 11:10:12;;;;;;;10.77;3.10;;;20.20;1.00;;;;;;7394001;19;20085;-68
2023/07/27 11:12:50;;;;;;;2.63;1.90;;;20.10;1.00;;;;;;7392729;19;20037;-68
2023/07/27 11:15:20;;;;;;;4.03;1.98;;;20.40;1.00;;;;;;7392404;19;20018;-69
2023/07/27 11:17:51;;;;;;;4.93;2.10;;;20.50;1.00;;;;;;7393147;19;20014;-68
2023/07/27 11:20:23;;;;;;;3.35;2.10;;;20.70;1.00;;;;;;7394889;19;20022;-70
2023/07/27 11:22:57;;;;;;;2.15;1.80;;;20.80;1.00;;;;;;7392514;19;20015;-69
2023/07/27 11:25:32;;;;;;;5.65;2.08;;;20.80;1.00;;;;;;7392322;19;20018;-69
2023/07/27 11:28:03;;;;;;;3.58;2.10;;;20.80;1.00;;;;;;7392032;19;20014;-69
2023/07/27 11:30:38;;;;;;;4.10;2.13;;;20.70;1.00;;;;;;7394293;19;20035;-69
2023/07/27 11:33:08;;;;;;;3.50;1.88;;;20.80;1.00;;;;;;7393405;19;20018;-69
2023/07/27 11:35:47;;;;;;;3.40;1.70;;;20.90;1.00;;;;;;7395672;19;20474;-70
2023/07/27 11:38:20;;;;;;;3.55;1.90;;;20.90;1.00;;;;;;7396104;19;20014;-68
2023/07/27 11:40:51;;;;;;;7.07;5.40;;;20.70;1.00;;;;;;7393296;19;20031;-68
2023/07/27 11:43:25;;;;;;;2.95;2.10;;;20.90;1.00;;;;;;7390471;19;20044;-68
2023/07/27 11:45:58;;;;;;;3.53;1.60;;;20.70;1.00;;;;;;7393439;19;20422;-68
2023/07/27 11:48:29;;;;;;;4.10;1.60;;;20.70;1.00;;;;;;7391746;19;20018;-69
2023/07/27 11:51:01;;;;;;;1.70;1.40;;;20.60;1.00;;;;;;7394496;19;20082;-69
2023/07/27 11:53:35;;;;;;;5.88;1.80;;;20.70;1.00;;;;;;7390756;19;20027;-68
2023/07/27 11:56:11;;;;;;;2.70;1.83;;;20.80;1.00;;;;;;7392440;19;20018;-68
2023/07/27 11:58:43;;;;;;;3.75;1.98;;;20.80;1.00;;;;;;7395784;19;20015;-69
2023/07/27 12:01:13;;;;;;;6.10;2.20;;;20.80;1.00;;;;;;7394390;19;20022;-70
2023/07/27 12:03:45;;;;;;;4.93;1.73;;;20.60;1.00;;;;;;7393787;19;20018;-69
2023/07/27 12:06:16;;;;;;;2.03;1.55;;;20.60;1.00;;;;;;7395758;19;20021;-68
2023/07/27 12:08:49;;;;;;;3.72;1.88;;;20.50;1.00;;;;;;7390664;19;20018;-69
2023/07/27 12:11:18;;;;;;;3.15;1.50;;;20.50;1.00;;;;;;7387434;19;20082;-68
2023/07/27 12:13:52;;;;;;;5.00;1.90;;;20.70;1.00;;;;;;7390397;19;20359;-69
2023/07/27 12:16:25;;;;;;;2.72;1.67;;;20.70;1.00;;;;;;7390183;19;20383;-69
2023/07/27 12:19:15;;;;;;;4.15;1.63;;;20.80;1.00;;;;;;7391350;19;20018;-69
2023/07/27 12:21:49;;;;;;;2.15;1.60;;;20.70;1.00;;;;;;7391089;19;20048;-69
2023/07/27 12:24:26;;;;;;;7.47;1.90;;;20.70;1.00;;;;;;7390030;19;20045;-69
2023/07/27 12:26:58;;;;;;;2.42;1.67;;;20.60;1.00;;;;;;7390834;19;20025;-68
2023/07/27 12:29:31;;;;;;;3.47;1.73;;;20.50;1.00;;;;;;7390427;19;20026;-69
2023/07/27 12:32:04;;;;;;;2.40;1.75;;;20.40;1.00;;;;;;7389081;19;20018;-68
2023/07/27 12:34:37;;;;;;;3.05;2.22;;;20.30;1.00;;;;;;7389529;19;20024;-69
2023/07/27 12:37:10;;;;;;;2.70;1.50;;;20.10;1.00;;;;;;7391324;19;20423;-70
2023/07/27 12:39:45;;;;;;;2.92;1.73;;;20.00;1.00;;;;;;7392024;19;20514;-69
2023/07/27 12:42:15;;;;;;;4.07;1.83;;;20.00;1.00;;;;;;7390804;19;20402;-68
2023/07/27 12:44:48;;;;;;;3.20;1.90;;;19.90;1.00;;;;;;7392366;19;20038;-69
2023/07/27 12:47:18;;;;;;;4.53;2.40;;;19.80;1.00;;;;;;7393776;19;20011;-69
2023/07/27 12:49:48;;;;;;;3.78;2.08;;;19.80;1.00;;;;;;7392498;19;20018;-68
2023/07/27 12:52:18;;;;;;;6.78;2.08;;;19.70;1.00;;;;;;7390749;19;20021;-68
2023/07/27 12:54:51;;;;;;;3.85;2.38;;;19.70;1.00;;;;;;7386668;19;20033;-68
2023/07/27 12:57:22;;;;;;;4.03;2.00;;;19.70;1.00;;;;;;7389489;19;20513;-68
2023/07/27 12:59:52;;;;;;;13.38;10.15;;;19.90;1.00;;;;;;7391976;19;20018;-68
2023/07/27 13:02:22;;;;;;;2.85;1.88;;;20.10;1.00;;;;;;7390790;19;20018;-69
2023/07/27 13:04:52;;;;;;;3.08;2.30;;;20.20;1.00;;;;;;7387592;19;20474;-69
2023/07/27 13:07:22;;;;;;;4.97;2.20;;;20.50;1.00;;;;;;7391577;19;20025;-69
2023/07/27 13:09:55;;;;;;;3.95;2.22;;;20.70;1.00;;;;;;7387863;19;20014;-68
2023/07/27 13:12:25;;;;;;;2.40;2.17;;;20.60;1.00;;;;;;7388012;19;20010;-68
2023/07/27 13:14:55;;;;;;;4.18;2.30;;;20.80;1.00;;;;;;7391772;19;20027;-69
2023/07/27 13:17:25;;;;;;;4.85;2.38;;;20.80;1.00;;;;;;7388423;19;20031;-69
2023/07/27 13:19:54;;;;;;;5.07;2.67;;;20.80;1.00;;;;;;7388589;19;20017;-69